Time;durP1;ratioP1;P1;durP2;ratioP2;P2;SDS_P1;SDS_P2;PMS_P1;PMS_P2;Temp;Humidity;BMP_temperature;BMP_pressure;BME280_temperature;BME280_humidity;BME280_pressure;Samples;Min_cycle;Max_cycle;Signal;HPM_P1;HPM_P2
2023/05/30 00:00:43;;;;;;;5.88;3.50;;;11.80;99.90;;;;;;5036668;28;20026;-71
2023/05/30 00:03:09;;;;;;;5.30;3.28;;;11.90;99.90;;;;;;5037339;28;20026;-71
2023/05/30 00:05:36;;;;;;;5.63;3.10;;;12.00;99.90;;;;;;5037506;28;20036;-72
2023/05/30 00:08:01;;;;;;;4.57;3.28;;;12.00;99.90;;;;;;5037739;28;20052;-71
2023/05/30 00:10:27;;;;;;;7.05;3.22;;;12.10;99.90;;;;;;5037830;28;20029;-70
2023/05/30 00:12:53;;;;;;;3.20;2.67;;;12.00;99.90;;;;;;5037342;28;20501;-72
2023/05/30 00:15:19;;;;;;;6.13;3.17;;;11.90;99.90;;;;;;5037988;28;20524;-72
2023/05/30 00:17:45;;;;;;;4.50;2.92;;;11.80;99.90;;;;;;5036680;28;20025;-71
2023/05/30 00:20:11;;;;;;;4.18;3.17;;;11.90;99.90;;;;;;5037019;28;20044;-72
2023/05/30 00:22:41;;;;;;;4.22;2.65;;;12.00;99.90;;;;;;5003144;28;20029;-71
2023/05/30 00:25:09;;;;;;;5.85;3.45;;;12.00;99.90;;;;;;5037128;28;20105;-72
2023/05/30 00:27:35;;;;;;;;;;;12.00;99.90;;;;;;5037874;28;20458;-70
2023/05/30 00:30:00;;;;;;;4.18;2.88;;;12.00;99.90;;;;;;5036964;28;19908;-73
2023/05/30 00:32:26;;;;;;;5.10;3.20;;;12.10;99.90;;;;;;5035726;28;20042;-72
2023/05/30 00:34:52;;;;;;;3.97;2.88;;;12.10;99.90;;;;;;5019395;28;20025;-70
2023/05/30 00:37:17;;;;;;;5.03;3.10;;;12.00;99.90;;;;;;5036378;28;20116;-70
2023/05/30 00:39:43;;;;;;;6.15;3.00;;;12.10;99.90;;;;;;5037003;28;20029;-71
2023/05/30 00:42:09;;;;;;;4.95;3.25;;;12.00;99.90;;;;;;5035987;28;20032;-71
2023/05/30 00:44:34;;;;;;;7.10;3.20;;;12.00;99.90;;;;;;5036273;28;20486;-71
2023/05/30 00:47:00;;;;;;;5.35;3.13;;;12.00;99.90;;;;;;5037302;28;20026;-71
2023/05/30 00:49:26;;;;;;;5.03;2.90;;;11.90;99.90;;;;;;5036893;28;20117;-70
2023/05/30 00:51:52;;;;;;;6.35;3.85;;;11.90;99.90;;;;;;5037223;28;20116;-71
2023/05/30 00:54:19;;;;;;;4.72;2.95;;;11.90;99.90;;;;;;5036297;28;20489;-71
2023/05/30 00:56:44;;;;;;;4.78;2.80;;;11.90;99.90;;;;;;5036253;28;20021;-71
2023/05/30 00:59:10;;;;;;;3.92;2.67;;;11.80;99.90;;;;;;5035574;28;20087;-71
2023/05/30 01:01:37;;;;;;;4.50;2.97;;;11.80;99.90;;;;;;5045078;28;20105;-92
2023/05/30 01:04:03;;;;;;;4.20;2.90;;;11.80;99.90;;;;;;5049901;28;20009;-92
2023/05/30 01:06:30;;;;;;;5.78;3.03;;;11.80;99.90;;;;;;5049550;28;20049;-92
2023/05/30 01:08:58;;;;;;;5.22;3.38;;;11.70;99.90;;;;;;5049813;28;20028;-92
2023/05/30 01:11:41;;;;;;;7.07;3.03;;;11.70;99.90;;;;;;5049718;28;20029;-92
2023/05/30 01:14:31;;;;;;;5.90;3.10;;;11.70;99.90;;;;;;5050855;28;20077;-92
2023/05/30 01:17:08;;;;;;;4.07;2.90;;;11.70;99.90;;;;;;5053531;28;20056;-92
2023/05/30 01:20:04;;;;;;;5.03;3.00;;;11.70;99.90;;;;;;5049579;28;20454;-93
2023/05/30 01:22:57;;;;;;;5.82;3.40;;;11.70;99.90;;;;;;5050119;28;20232;-92
2023/05/30 01:25:45;;;;;;;4.82;3.28;;;11.70;99.90;;;;;;5049555;28;20077;-93
2023/05/30 01:28:21;;;;;;;3.95;3.30;;;11.70;99.90;;;;;;5049692;28;20033;-92
2023/05/30 01:30:51;;;;;;;7.63;3.00;;;11.70;99.90;;;;;;5049980;28;20053;-93
2023/05/30 01:33:19;;;;;;;6.45;3.08;;;11.70;99.90;;;;;;5051066;28;20048;-93
2023/05/30 01:35:45;;;;;;;;;;;11.70;99.90;;;;;;5053121;28;20033;-93
2023/05/30 01:38:11;;;;;;;4.88;2.72;;;11.80;99.90;;;;;;5053100;28;19931;-93
2023/05/30 01:40:38;;;;;;;4.07;3.00;;;11.90;99.90;;;;;;5052623;28;20091;-93
2023/05/30 01:43:28;;;;;;;7.95;3.67;;;12.10;99.90;;;;;;5051823;28;20022;-93
2023/05/30 01:46:21;;;;;;;5.20;3.17;;;12.10;99.90;;;;;;5052341;28;20056;-93
2023/05/30 01:48:54;;;;;;;4.50;3.17;;;12.20;99.90;;;;;;5052928;28;20022;-93
2023/05/30 01:51:39;;;;;;;7.82;3.30;;;12.20;99.90;;;;;;5034928;28;20028;-94
2023/05/30 01:54:07;;;;;;;4.07;3.30;;;12.20;99.90;;;;;;5056407;28;20052;-94
2023/05/30 01:56:34;;;;;;;6.25;3.30;;;12.10;99.90;;;;;;5056467;28;20052;-93
2023/05/30 01:59:02;;;;;;;4.72;3.33;;;12.10;99.90;;;;;;5055692;28;20088;-93
2023/05/30 02:01:29;;;;;;;4.30;3.33;;;12.00;99.90;;;;;;5054579;28;20034;-92
2023/05/30 02:03:55;;;;;;;3.63;2.87;;;12.00;99.90;;;;;;5056043;28;20332;-93
2023/05/30 02:06:22;;;;;;;5.18;3.17;;;12.00;99.90;;;;;;5054910;28;20276;-92
2023/05/30 02:08:48;;;;;;;4.32;3.10;;;12.00;99.90;;;;;;5056039;28;20049;-95
2023/05/30 02:11:14;;;;;;;5.85;3.33;;;12.00;99.90;;;;;;5055961;28;20048;-93
2023/05/30 02:13:40;;;;;;;5.25;3.20;;;12.10;99.90;;;;;;5055590;28;20029;-93
2023/05/30 02:16:06;;;;;;;5.53;3.22;;;12.10;99.90;;;;;;5037771;28;20036;-93
2023/05/30 02:18:32;;;;;;;7.45;3.33;;;12.10;99.90;;;;;;5056508;28;20022;-93
2023/05/30 02:20:58;;;;;;;5.72;3.53;;;12.10;99.90;;;;;;5038813;28;20037;-91
2023/05/30 02:23:23;;;;;;;4.65;3.40;;;12.10;99.90;;;;;;5055707;28;20037;-92
2023/05/30 02:25:49;;;;;;;4.68;3.53;;;12.10;99.90;;;;;;5053715;28;20026;-93
2023/05/30 02:28:15;;;;;;;5.00;3.28;;;12.10;99.90;;;;;;5055807;28;20020;-94
2023/05/30 02:30:40;;;;;;;5.82;3.50;;;12.20;99.90;;;;;;5055466;28;20405;-94
2023/05/30 02:33:06;;;;;;;7.82;3.72;;;12.20;99.90;;;;;;5055697;28;20029;-93
2023/05/30 02:35:32;;;;;;;6.47;3.53;;;12.20;99.90;;;;;;5055494;28;20032;-94
2023/05/30 02:37:57;;;;;;;4.93;3.35;;;12.20;99.90;;;;;;5054935;28;20033;-93
2023/05/30 02:40:23;;;;;;;5.22;3.38;;;12.10;99.90;;;;;;5055436;28;20033;-92
2023/05/30 02:42:49;;;;;;;5.90;3.60;;;11.90;99.90;;;;;;5055970;28;20048;-93
2023/05/30 02:45:15;;;;;;;5.30;3.40;;;11.80;99.90;;;;;;5055487;28;20112;-92
2023/05/30 02:47:43;;;;;;;5.25;3.80;;;11.70;99.90;;;;;;5055744;28;20484;-92
2023/05/30 02:50:08;;;;;;;5.82;3.20;;;11.70;99.90;;;;;;5054361;28;20042;-93
2023/05/30 02:52:34;;;;;;;6.72;3.67;;;11.70;99.90;;;;;;5054080;28;20043;-92
2023/05/30 02:55:00;;;;;;;6.53;3.50;;;11.80;99.90;;;;;;5056970;28;20104;-92
2023/05/30 02:57:25;;;;;;;4.40;3.33;;;11.80;99.90;;;;;;5056158;28;20120;-93
2023/05/30 02:59:52;;;;;;;7.25;3.42;;;11.80;99.90;;;;;;5056031;28;20043;-93
2023/05/30 03:02:17;;;;;;;5.07;3.60;;;11.90;99.90;;;;;;5055255;28;20050;-93
2023/05/30 03:04:46;;;;;;;5.97;3.50;;;11.90;99.90;;;;;;5054901;28;20030;-92
2023/05/30 03:07:18;;;;;;;5.95;3.50;;;12.00;99.90;;;;;;5055058;28;20061;-93
2023/05/30 03:09:45;;;;;;;7.55;3.47;;;12.00;99.90;;;;;;5054064;28;20040;-93
2023/05/30 03:12:11;;;;;;;6.32;3.30;;;11.90;99.90;;;;;;5055698;28;20034;-93
2023/05/30 03:14:36;;;;;;;5.05;3.38;;;12.00;99.90;;;;;;5055119;28;20029;-94
2023/05/30 03:17:03;;;;;;;4.40;3.22;;;12.10;99.90;;;;;;5055516;28;20025;-94
2023/05/30 03:19:29;;;;;;;6.00;3.30;;;12.10;99.90;;;;;;5055013;28;20039;-93
2023/05/30 03:21:55;;;;;;;4.78;3.10;;;12.10;99.90;;;;;;5021375;28;20009;-92
2023/05/30 03:24:21;;;;;;;4.70;3.50;;;11.90;99.90;;;;;;5055670;28;20006;-93
2023/05/30 03:26:47;;;;;;;4.22;3.05;;;11.90;99.90;;;;;;5055501;28;20021;-94
2023/05/30 03:29:12;;;;;;;4.50;3.42;;;11.90;99.90;;;;;;5054994;28;20034;-92
2023/05/30 03:31:38;;;;;;;6.13;3.40;;;11.90;99.90;;;;;;5054203;28;20068;-93
2023/05/30 03:34:04;;;;;;;5.85;3.53;;;12.00;99.90;;;;;;5053971;28;20109;-93
2023/05/30 03:36:29;;;;;;;3.97;3.30;;;11.90;99.90;;;;;;5038562;28;20033;-93
2023/05/30 03:38:55;;;;;;;6.30;3.47;;;11.90;99.90;;;;;;5056931;28;20089;-94
2023/05/30 03:41:21;;;;;;;4.70;3.40;;;11.90;99.90;;;;;;5056091;28;20056;-92
2023/05/30 03:43:47;;;;;;;4.70;3.50;;;11.90;99.90;;;;;;5055728;28;20029;-94
2023/05/30 03:46:16;;;;;;;8.40;3.50;;;12.00;99.90;;;;;;5055308;28;20029;-93
2023/05/30 03:48:45;;;;;;;3.90;3.30;;;12.00;99.90;;;;;;5055483;28;20051;-93
2023/05/30 03:51:11;;;;;;;6.90;3.55;;;12.00;99.90;;;;;;5054907;28;20536;-92
2023/05/30 03:53:37;;;;;;;5.75;3.60;;;12.00;99.90;;;;;;5054611;28;20025;-93
2023/05/30 03:56:03;;;;;;;5.18;3.45;;;12.00;99.90;;;;;;5054811;28;20044;-93
2023/05/30 03:58:29;;;;;;;4.95;3.75;;;12.00;99.90;;;;;;5054226;28;20029;-94
2023/05/30 04:00:54;;;;;;;4.07;3.38;;;11.90;99.90;;;;;;5053421;28;20040;-93
2023/05/30 04:03:20;;;;;;;5.68;3.30;;;11.80;99.90;;;;;;5054013;28;20068;-92
2023/05/30 04:05:47;;;;;;;5.15;3.10;;;11.90;99.90;;;;;;5053892;28;20085;-92
2023/05/30 04:08:13;;;;;;;4.22;3.15;;;11.90;99.90;;;;;;5053060;28;20045;-93
2023/05/30 04:10:39;;;;;;;5.68;3.40;;;11.90;99.90;;;;;;5053170;28;20026;-94
2023/05/30 04:13:05;;;;;;;5.10;3.60;;;11.90;99.90;;;;;;5053252;28;20478;-93
2023/05/30 04:15:31;;;;;;;5.65;3.72;;;12.00;99.90;;;;;;5054480;28;20021;-94
2023/05/30 04:17:57;;;;;;;4.65;3.50;;;12.00;99.90;;;;;;5054054;28;20017;-94
2023/05/30 04:20:24;;;;;;;7.05;4.30;;;12.10;99.90;;;;;;5055011;28;20009;-95
2023/05/30 04:22:50;;;;;;;5.43;3.65;;;12.20;99.90;;;;;;5053914;28;20033;-94
2023/05/30 04:25:17;;;;;;;5.57;4.30;;;12.20;99.90;;;;;;5053724;28;20025;-93
2023/05/30 04:27:43;;;;;;;4.75;3.67;;;12.20;99.90;;;;;;5053763;28;20496;-94
2023/05/30 04:30:10;;;;;;;4.05;3.50;;;12.30;99.90;;;;;;5053624;28;20026;-94
2023/05/30 04:32:36;;;;;;;6.20;3.75;;;12.20;99.90;;;;;;5061280;22;20021;-37
2023/05/30 04:35:03;;;;;;;5.03;3.90;;;12.30;99.90;;;;;;4990793;28;20042;-37
2023/05/30 04:37:29;;;;;;;6.82;3.95;;;12.30;99.90;;;;;;4995401;28;20109;-37
2023/05/30 04:39:56;;;;;;;6.18;4.15;;;12.40;99.90;;;;;;4996309;28;20128;-37
2023/05/30 04:42:26;;;;;;;6.53;3.88;;;12.40;99.90;;;;;;4998032;28;20053;-37
2023/05/30 04:44:53;;;;;;;6.47;3.85;;;12.50;99.90;;;;;;4998313;28;20388;-37
2023/05/30 04:47:21;;;;;;;9.60;4.50;;;12.50;99.90;;;;;;4984000;28;20042;-37
2023/05/30 04:49:47;;;;;;;4.72;3.78;;;12.50;99.90;;;;;;4996903;28;20034;-37
2023/05/30 04:52:12;;;;;;;6.68;3.90;;;12.50;99.90;;;;;;5000733;28;20038;-37
2023/05/30 04:54:38;;;;;;;5.95;4.10;;;12.60;99.90;;;;;;4996835;28;20033;-37
2023/05/30 04:57:04;;;;;;;7.95;4.85;;;12.60;99.90;;;;;;4992625;28;20034;-37
2023/05/30 04:59:30;;;;;;;7.07;3.90;;;12.70;99.90;;;;;;4995249;28;20042;-37
2023/05/30 05:01:56;;;;;;;6.57;4.03;;;12.80;99.90;;;;;;4995006;28;20044;-38
2023/05/30 05:04:22;;;;;;;8.73;4.22;;;12.90;99.90;;;;;;4995972;28;20971;-38
2023/05/30 05:06:47;;;;;;;8.82;3.90;;;12.90;99.90;;;;;;4997299;28;20075;-38
2023/05/30 05:09:13;;;;;;;7.38;3.85;;;13.00;99.90;;;;;;4994969;28;20042;-38
2023/05/30 05:11:39;;;;;;;5.60;3.92;;;13.10;99.90;;;;;;4984518;28;20033;-38
2023/05/30 05:14:05;;;;;;;4.63;3.92;;;13.10;99.90;;;;;;4994766;28;20677;-39
2023/05/30 05:16:30;;;;;;;6.57;3.70;;;13.10;99.90;;;;;;4993227;28;20110;-38
2023/05/30 05:18:56;;;;;;;8.30;4.28;;;13.10;99.90;;;;;;5000249;28;20018;-39
2023/05/30 05:21:21;;;;;;;6.25;4.65;;;13.20;99.90;;;;;;4996711;28;20038;-38
2023/05/30 05:23:48;;;;;;;6.38;3.97;;;13.10;99.90;;;;;;4999999;28;20064;-38
2023/05/30 05:26:13;;;;;;;9.43;4.40;;;13.10;99.90;;;;;;4993309;28;20058;-38
2023/05/30 05:28:39;;;;;;;7.07;4.00;;;13.10;99.90;;;;;;4987541;28;20064;-38
2023/05/30 05:31:05;;;;;;;9.63;4.25;;;13.20;99.90;;;;;;4994729;28;20057;-38
2023/05/30 05:33:30;;;;;;;7.03;4.15;;;13.20;99.90;;;;;;4997845;28;20056;-38
2023/05/30 05:35:56;;;;;;;7.15;4.13;;;13.20;99.90;;;;;;4994987;28;20109;-38
2023/05/30 05:38:21;;;;;;;6.22;4.07;;;13.20;99.90;;;;;;4997221;28;20045;-38
2023/05/30 05:40:47;;;;;;;5.55;4.07;;;13.30;99.90;;;;;;4983720;28;20026;-38
2023/05/30 05:43:13;;;;;;;8.38;4.72;;;13.30;99.90;;;;;;4997287;28;20472;-38
2023/05/30 05:45:38;;;;;;;4.18;3.63;;;13.40;99.90;;;;;;4998609;28;20387;-38
2023/05/30 05:48:04;;;;;;;6.53;4.28;;;13.40;99.90;;;;;;5001458;28;20069;-38
2023/05/30 05:50:30;;;;;;;6.70;4.30;;;13.40;99.90;;;;;;4998363;28;20037;-38
2023/05/30 05:52:56;;;;;;;5.50;4.13;;;13.50;99.90;;;;;;4994269;28;20375;-38
2023/05/30 05:55:22;;;;;;;5.95;4.50;;;13.50;99.90;;;;;;4992786;28;20113;-39
2023/05/30 05:57:47;;;;;;;7.95;4.32;;;13.60;99.90;;;;;;4994398;28;20030;-38
2023/05/30 06:00:14;;;;;;;5.70;3.83;;;13.60;99.90;;;;;;4994246;28;20038;-38
2023/05/30 06:02:39;;;;;;;5.85;3.67;;;13.80;99.90;;;;;;4995441;28;20085;-38
2023/05/30 06:05:06;;;;;;;5.95;4.43;;;13.90;99.90;;;;;;4990729;28;20429;-39
2023/05/30 06:07:32;;;;;;;7.38;4.00;;;14.00;99.90;;;;;;4995212;28;20682;-39
2023/05/30 06:09:58;;;;;;;8.95;4.45;;;14.20;99.90;;;;;;4992945;28;20057;-39
2023/05/30 06:12:24;;;;;;;8.35;4.18;;;14.30;99.90;;;;;;4985143;28;20057;-38
2023/05/30 06:14:49;;;;;;;5.53;3.90;;;14.40;99.90;;;;;;5001705;28;20026;-38
2023/05/30 06:17:15;;;;;;;9.43;5.03;;;14.40;99.90;;;;;;4974333;28;20463;-38
2023/05/30 06:19:41;;;;;;;7.30;4.20;;;14.50;99.90;;;;;;4981810;28;20025;-38
2023/05/30 06:22:07;;;;;;;7.20;4.00;;;14.60;99.90;;;;;;4992221;28;20030;-38
2023/05/30 06:24:33;;;;;;;7.85;4.50;;;14.80;99.90;;;;;;4994759;28;20364;-38
2023/05/30 06:26:59;;;;;;;8.43;4.47;;;14.90;99.90;;;;;;4994671;28;20156;-38
2023/05/30 06:29:26;;;;;;;6.35;3.80;;;15.10;99.90;;;;;;4997251;28;20026;-38
2023/05/30 06:31:51;;;;;;;7.90;4.60;;;15.10;99.90;;;;;;4996349;28;20449;-38
2023/05/30 06:34:17;;;;;;;7.22;3.78;;;15.10;99.90;;;;;;4993820;28;20081;-38
2023/05/30 06:36:42;;;;;;;9.52;5.15;;;15.20;99.90;;;;;;4974062;28;20033;-38
2023/05/30 06:39:14;;;;;;;6.68;4.10;;;15.20;99.90;;;;;;4999140;28;20068;-38
2023/05/30 06:41:42;;;;;;;5.32;3.60;;;15.20;99.90;;;;;;4998591;28;20578;-38
2023/05/30 06:44:08;;;;;;;4.78;3.50;;;15.40;99.90;;;;;;4996653;28;20027;-38
2023/05/30 06:46:34;;;;;;;13.32;4.25;;;15.40;99.90;;;;;;4993492;28;20104;-39
2023/05/30 06:49:00;;;;;;;8.73;3.88;;;15.40;99.90;;;;;;4997929;28;20054;-38
2023/05/30 06:51:26;;;;;;;6.15;3.67;;;15.50;99.90;;;;;;4999737;28;20416;-38
2023/05/30 06:53:52;;;;;;;7.03;4.30;;;15.50;99.90;;;;;;5000196;28;20574;-38
2023/05/30 06:56:17;;;;;;;8.07;4.35;;;15.60;99.90;;;;;;4999065;28;20161;-38
2023/05/30 06:58:43;;;;;;;5.88;4.03;;;15.70;99.90;;;;;;5002282;28;20325;-39
2023/05/30 07:01:09;;;;;;;6.57;3.95;;;15.70;99.90;;;;;;4996549;28;20099;-38
2023/05/30 07:03:35;;;;;;;6.28;4.10;;;15.70;99.90;;;;;;4982046;28;20522;-39
2023/05/30 07:06:02;;;;;;;7.50;4.28;;;15.80;99.90;;;;;;4990052;28;20023;-38
2023/05/30 07:08:27;;;;;;;5.20;3.58;;;15.90;99.90;;;;;;4996187;28;20500;-39
2023/05/30 07:10:53;;;;;;;7.70;4.32;;;15.90;99.90;;;;;;4996869;28;20029;-39
2023/05/30 07:13:18;;;;;;;6.22;3.92;;;16.10;99.90;;;;;;4980379;28;20026;-39
2023/05/30 07:15:44;;;;;;;6.47;4.13;;;16.10;99.90;;;;;;4996649;28;20034;-39
2023/05/30 07:18:10;;;;;;;6.68;4.30;;;16.20;99.90;;;;;;4998590;28;20029;-39
2023/05/30 07:20:36;;;;;;;8.13;4.70;;;16.20;99.90;;;;;;4997132;28;20113;-39
2023/05/30 07:23:01;;;;;;;6.93;4.22;;;16.30;99.90;;;;;;4999322;28;20030;-39
2023/05/30 07:25:27;;;;;;;5.40;3.90;;;16.40;99.90;;;;;;4987258;28;20070;-38
2023/05/30 07:27:53;;;;;;;7.72;4.20;;;16.50;99.90;;;;;;4997954;28;20105;-38
2023/05/30 07:30:18;;;;;;;6.32;3.78;;;16.70;99.90;;;;;;4984000;28;20033;-38
2023/05/30 07:32:44;;;;;;;9.82;4.57;;;16.90;99.90;;;;;;5000596;28;20039;-39
2023/05/30 07:35:10;;;;;;;9.68;4.60;;;17.10;99.90;;;;;;4999845;28;20027;-38
2023/05/30 07:37:36;;;;;;;7.15;4.25;;;17.20;99.90;;;;;;4995360;28;20507;-38
2023/05/30 07:40:05;;;;;;;5.50;4.10;;;17.10;99.90;;;;;;5004757;28;20398;-42
2023/05/30 07:42:31;;;;;;;7.80;4.07;;;17.00;99.90;;;;;;4998092;28;20034;-38
2023/05/30 07:44:57;;;;;;;6.85;3.88;;;17.40;99.90;;;;;;4997510;28;20030;-39
2023/05/30 07:47:22;;;;;;;6.03;4.00;;;17.30;99.90;;;;;;4998086;28;20502;-42
2023/05/30 07:49:48;;;;;;;8.32;4.05;;;17.30;99.90;;;;;;4999504;28;20558;-38
2023/05/30 07:52:13;;;;;;;8.20;3.72;;;17.20;99.90;;;;;;4999771;28;20403;-38
2023/05/30 07:54:39;;;;;;;8.70;3.90;;;17.30;99.90;;;;;;4999187;28;20507;-38
2023/05/30 07:57:06;;;;;;;7.63;4.00;;;17.60;99.90;;;;;;4999011;28;20372;-38
2023/05/30 07:59:32;;;;;;;7.55;4.38;;;17.70;99.90;;;;;;5001204;28;20153;-37
2023/05/30 08:01:57;;;;;;;6.00;3.70;;;18.00;99.90;;;;;;4996140;28;20492;-38
2023/05/30 08:04:23;;;;;;;7.25;4.10;;;18.00;99.90;;;;;;4994918;28;20086;-39
2023/05/30 08:06:49;;;;;;;6.97;4.05;;;18.00;99.90;;;;;;4995476;28;20080;-38
2023/05/30 08:09:15;;;;;;;6.07;3.90;;;18.00;99.90;;;;;;4994584;28;20026;-38
2023/05/30 08:11:40;;;;;;;6.88;4.07;;;18.10;99.90;;;;;;4998778;28;20041;-37
2023/05/30 08:14:06;;;;;;;8.07;4.05;;;18.10;99.90;;;;;;4998277;28;20018;-38
2023/05/30 08:16:32;;;;;;;7.10;4.30;;;18.10;99.90;;;;;;4997114;28;20044;-38
2023/05/30 08:18:58;;;;;;;8.07;4.70;;;18.40;99.90;;;;;;4996773;28;20026;-38
2023/05/30 08:21:24;;;;;;;9.70;4.40;;;18.40;99.90;;;;;;4997690;28;20078;-38
2023/05/30 08:23:49;;;;;;;6.50;3.90;;;18.50;99.90;;;;;;4993030;28;20578;-38
2023/05/30 08:26:16;;;;;;;6.32;4.25;;;18.60;99.90;;;;;;5001360;28;20545;-38
2023/05/30 08:28:42;;;;;;;8.65;4.40;;;18.70;99.90;;;;;;5000445;28;20034;-37
2023/05/30 08:31:08;;;;;;;6.22;3.90;;;18.70;99.90;;;;;;4995949;28;20053;-37
2023/05/30 08:33:35;;;;;;;6.10;3.65;;;18.90;99.90;;;;;;4993824;28;20047;-37
2023/05/30 08:36:01;;;;;;;8.13;4.47;;;19.10;99.90;;;;;;4998047;28;20029;-38
2023/05/30 08:38:26;;;;;;;7.05;3.90;;;19.10;99.90;;;;;;4997046;28;20105;-38
2023/05/30 08:40:53;;;;;;;7.32;3.78;;;18.90;99.90;;;;;;4996181;28;20030;-38
2023/05/30 08:43:19;;;;;;;7.22;4.93;;;19.10;99.90;;;;;;4998931;28;20022;-39
2023/05/30 08:45:46;;;;;;;7.40;3.80;;;19.20;99.90;;;;;;4996664;28;20073;-38
2023/05/30 08:48:13;;;;;;;7.45;4.00;;;19.30;99.90;;;;;;4995878;28;20462;-38
2023/05/30 08:50:40;;;;;;;6.90;4.37;;;19.50;99.90;;;;;;4996767;28;20483;-38
2023/05/30 08:53:11;;;;;;;7.25;3.90;;;19.30;99.90;;;;;;4997937;28;20399;-38
2023/05/30 08:55:47;;;;;;;4.25;3.58;;;19.60;99.90;;;;;;5000975;28;20421;-38
2023/05/30 08:58:20;;;;;;;6.05;4.25;;;19.70;99.90;;;;;;4990852;28;20056;-38
2023/05/30 09:00:48;;;;;;;5.45;3.92;;;19.90;99.90;;;;;;4996188;28;20036;-37
2023/05/30 09:03:13;;;;;;;;;;;19.90;99.90;;;;;;4995739;28;20030;-36
2023/05/30 09:05:40;;;;;;;5.22;4.13;;;19.90;99.90;;;;;;4996418;28;19905;-37
2023/05/30 09:08:08;;;;;;;7.40;4.28;;;20.20;99.90;;;;;;4992863;28;20037;-37
2023/05/30 09:10:35;;;;;;;7.18;3.85;;;20.10;99.90;;;;;;4997623;28;20041;-37
2023/05/30 09:13:01;;;;;;;4.88;3.55;;;20.10;99.90;;;;;;4994488;28;20442;-37
2023/05/30 09:15:26;;;;;;;5.97;3.42;;;20.10;99.90;;;;;;4992555;28;20018;-37
2023/05/30 09:17:52;;;;;;;8.52;4.10;;;20.30;99.90;;;;;;5002763;28;20035;-37
2023/05/30 09:20:18;;;;;;;5.07;3.53;;;20.30;99.90;;;;;;5001029;28;20030;-37
2023/05/30 09:22:45;;;;;;;6.25;4.50;;;20.40;99.90;;;;;;4995516;28;20038;-37
2023/05/30 09:25:14;;;;;;;5.82;4.50;;;20.40;99.90;;;;;;4993218;28;20050;-37
2023/05/30 09:27:42;;;;;;;7.97;4.22;;;20.40;99.90;;;;;;5001532;28;20040;-37
2023/05/30 09:30:09;;;;;;;5.93;4.10;;;20.40;99.90;;;;;;4992669;28;20037;-37
2023/05/30 09:32:36;;;;;;;7.30;3.80;;;20.50;99.90;;;;;;4999260;28;20153;-36
2023/05/30 09:35:09;;;;;;;5.43;3.97;;;20.50;99.90;;;;;;4995565;28;20030;-37
2023/05/30 09:37:43;;;;;;;6.03;4.10;;;20.60;99.90;;;;;;4998872;28;20360;-37
2023/05/30 09:40:15;;;;;;;7.50;4.25;;;20.70;99.90;;;;;;4994600;28;20069;-37
2023/05/30 09:42:52;;;;;;;6.63;3.72;;;20.70;99.90;;;;;;5002349;28;20117;-37
2023/05/30 09:45:24;;;;;;;6.10;3.35;;;21.00;99.90;;;;;;4996452;28;20038;-38
2023/05/30 09:47:52;;;;;;;7.68;4.22;;;21.00;99.90;;;;;;5004764;28;20032;-37
2023/05/30 09:50:19;;;;;;;7.35;3.90;;;21.00;99.90;;;;;;4997733;28;20033;-37
2023/05/30 09:52:48;;;;;;;6.90;3.88;;;21.00;99.90;;;;;;4996287;28;20034;-37
2023/05/30 09:55:15;;;;;;;9.63;4.28;;;21.00;99.90;;;;;;4993283;28;20035;-37
2023/05/30 09:57:46;;;;;;;7.82;4.03;;;21.10;99.90;;;;;;4996208;28;20026;-37
2023/05/30 10:00:15;;;;;;;8.70;4.50;;;21.20;99.90;;;;;;4994564;28;20032;-37
2023/05/30 10:02:53;;;;;;;5.82;3.83;;;21.30;99.90;;;;;;4998685;28;20037;-37
2023/05/30 10:05:21;;;;;;;5.03;3.75;;;21.20;99.90;;;;;;4995277;28;20026;-37
2023/05/30 10:07:49;;;;;;;6.78;3.75;;;21.20;99.90;;;;;;4996711;28;20076;-38
2023/05/30 10:10:15;;;;;;;6.22;4.28;;;21.30;99.90;;;;;;4991377;28;20502;-37
2023/05/30 10:12:48;;;;;;;5.07;3.00;;;21.40;99.90;;;;;;4994911;28;20022;-37
2023/05/30 10:15:13;;;;;;;6.35;3.30;;;21.70;99.90;;;;;;4994967;28;20439;-38
2023/05/30 10:18:00;;;;;;;5.22;3.63;;;21.80;99.90;;;;;;4998417;28;20058;-37
2023/05/30 10:20:27;;;;;;;4.87;3.37;;;21.70;99.90;;;;;;4996509;28;20038;-37
2023/05/30 10:22:53;;;;;;;5.88;3.63;;;21.60;99.90;;;;;;4998313;28;20045;-37
2023/05/30 10:25:19;;;;;;;4.53;2.83;;;21.60;99.90;;;;;;4994772;28;20105;-37
2023/05/30 10:27:51;;;;;;;5.90;3.33;;;21.80;99.90;;;;;;5000953;28;20066;-37
2023/05/30 10:30:28;;;;;;;5.00;3.30;;;21.70;99.90;;;;;;4999174;28;20113;-38
2023/05/30 10:33:06;;;;;;;6.18;3.42;;;21.70;99.90;;;;;;4999259;28;20452;-37
2023/05/30 10:35:33;;;;;;;5.03;3.00;;;21.80;99.90;;;;;;5003555;28;20132;-37
2023/05/30 10:37:59;;;;;;;5.57;3.65;;;21.90;99.90;;;;;;5001040;28;20057;-37
2023/05/30 10:41:00;;;;;;;4.85;3.55;;;22.00;99.90;;;;;;4997707;28;20023;-37
2023/05/30 10:43:56;;;;;;;4.93;3.13;;;22.10;99.90;;;;;;4991716;28;20061;-38
2023/05/30 10:47:02;;;;;;;3.05;2.65;;;22.10;99.90;;;;;;4998904;28;20030;-37
2023/05/30 10:49:29;;;;;;;6.68;3.00;;;22.20;99.90;;;;;;4995960;28;20545;-37
2023/05/30 10:52:06;;;;;;;6.50;3.35;;;22.40;99.90;;;;;;4994907;28;20032;-38
2023/05/30 10:54:34;;;;;;;8.18;3.28;;;22.60;99.90;;;;;;4999237;28;20042;-37
2023/05/30 10:57:24;;;;;;;6.97;3.55;;;22.40;99.90;;;;;;4999594;28;20018;-37
2023/05/30 10:59:50;;;;;;;4.13;3.20;;;22.30;99.90;;;;;;4996530;28;20546;-37
2023/05/30 11:02:20;;;;;;;5.50;3.00;;;22.40;99.90;;;;;;4998663;28;20030;-37
2023/05/30 11:04:49;;;;;;;8.73;3.13;;;22.60;99.90;;;;;;4996859;28;20058;-37
2023/05/30 11:07:17;;;;;;;4.60;3.47;;;22.70;99.90;;;;;;4998637;28;20026;-37
2023/05/30 11:10:04;;;;;;;6.20;2.97;;;22.70;99.90;;;;;;4999795;28;20080;-37
2023/05/30 11:12:30;;;;;;;5.35;3.28;;;22.40;99.90;;;;;;4993149;28;20106;-37
2023/05/30 11:14:57;;;;;;;4.55;3.08;;;22.40;99.90;;;;;;4994375;28;20117;-37
2023/05/30 11:17:31;;;;;;;5.73;3.57;;;22.50;99.90;;;;;;4996378;28;20034;-37
2023/05/30 11:20:09;;;;;;;4.00;2.95;;;22.30;99.90;;;;;;5002583;28;20034;-37
2023/05/30 11:22:37;;;;;;;3.33;2.88;;;22.30;99.90;;;;;;4998591;28;20228;-37
2023/05/30 11:25:23;;;;;;;4.78;3.00;;;22.40;99.90;;;;;;4997721;28;20041;-37
2023/05/30 11:28:04;;;;;;;7.30;3.13;;;22.70;99.90;;;;;;5000500;28;20117;-37
2023/05/30 11:30:43;;;;;;;4.22;2.63;;;21.70;99.90;;;;;;4997471;28;20042;-36
2023/05/30 11:33:10;;;;;;;5.63;3.17;;;21.70;99.90;;;;;;5000114;28;20053;-37
2023/05/30 11:35:36;;;;;;;6.72;3.55;;;21.60;99.90;;;;;;4992139;28;20384;-38
2023/05/30 11:38:02;;;;;;;3.50;3.20;;;21.40;99.90;;;;;;4997402;28;20109;-37
2023/05/30 11:40:28;;;;;;;7.47;2.80;;;21.60;99.90;;;;;;4996138;28;20177;-37
2023/05/30 11:42:55;;;;;;;4.15;2.80;;;21.90;99.90;;;;;;4993442;28;20398;-37
2023/05/30 11:45:29;;;;;;;5.57;3.38;;;22.40;99.90;;;;;;4995894;28;20030;-37
2023/05/30 11:48:06;;;;;;;4.22;2.90;;;22.70;99.90;;;;;;4996804;28;20050;-37
2023/05/30 11:50:42;;;;;;;3.35;2.72;;;22.30;99.90;;;;;;4997498;28;20045;-37
2023/05/30 11:53:17;;;;;;;3.53;2.95;;;22.60;99.90;;;;;;4995447;28;20027;-37
2023/05/30 11:55:46;;;;;;;5.78;3.25;;;22.90;99.90;;;;;;4998946;28;20368;-37
2023/05/30 11:58:17;;;;;;;4.15;2.80;;;22.80;99.90;;;;;;4998671;28;20034;-37
2023/05/30 12:00:43;;;;;;;4.15;3.17;;;22.20;99.90;;;;;;4997362;28;20372;-37
2023/05/30 12:03:12;;;;;;;5.47;3.08;;;22.20;99.90;;;;;;4996801;28;20041;-37
2023/05/30 12:05:38;;;;;;;3.47;2.80;;;22.40;99.90;;;;;;4999874;28;20030;-37
2023/05/30 12:08:05;;;;;;;4.25;2.55;;;22.30;99.90;;;;;;4992862;28;20468;-37
2023/05/30 12:10:31;;;;;;;2.67;2.45;;;22.60;99.90;;;;;;4997556;28;20100;-37
2023/05/30 12:12:59;;;;;;;4.95;2.88;;;22.70;99.90;;;;;;4994582;28;20054;-37
2023/05/30 12:15:25;;;;;;;14.32;3.60;;;22.70;99.90;;;;;;4994991;28;20040;-37
2023/05/30 12:17:54;;;;;;;4.88;2.78;;;22.20;99.90;;;;;;4995091;28;20030;-37
2023/05/30 12:20:21;;;;;;;4.35;2.70;;;22.20;99.90;;;;;;5001096;28;20025;-37
2023/05/30 12:22:47;;;;;;;4.27;2.83;;;22.40;99.90;;;;;;4996650;28;20034;-37
2023/05/30 12:25:13;;;;;;;3.80;2.60;;;22.80;99.90;;;;;;4997112;28;20038;-37
2023/05/30 12:27:44;;;;;;;3.40;2.78;;;23.00;99.90;;;;;;4994758;28;20053;-37
2023/05/30 12:30:18;;;;;;;5.35;3.10;;;23.20;99.90;;;;;;4996531;28;20025;-37
2023/05/30 12:32:47;;;;;;;5.40;2.90;;;23.10;99.90;;;;;;4994085;28;20502;-37
2023/05/30 12:35:13;;;;;;;8.57;3.20;;;23.00;99.90;;;;;;4994984;28;20042;-37
2023/05/30 12:37:39;;;;;;;5.10;2.75;;;22.60;99.90;;;;;;4993923;28;20537;-37
2023/05/30 12:40:06;;;;;;;3.75;3.08;;;22.30;99.90;;;;;;4997439;28;20027;-37
2023/05/30 12:42:33;;;;;;;5.38;3.03;;;22.20;99.90;;;;;;4996459;28;20038;-37
2023/05/30 12:45:04;;;;;;;9.35;3.05;;;22.10;99.90;;;;;;4997934;28;20070;-37
2023/05/30 12:47:30;;;;;;;5.45;3.10;;;22.30;99.90;;;;;;4993729;28;20025;-36
2023/05/30 12:49:57;;;;;;;5.57;2.90;;;22.20;99.90;;;;;;5004540;28;20044;-36
2023/05/30 12:52:24;;;;;;;5.22;2.72;;;22.40;99.90;;;;;;4997804;28;20032;-37